BOV222 SLVR-SLCB
Flight info
| Callsign | BOV222 |
|---|---|
| Flight time | 0h 50m |
| Altitude | 24000 |
| Route | KOSBO1 KOSBO UT712 PORKI |
| Aircraft | B737/M-SDE2E3FGHIRWXY/LB1 |
Departure
| Time | 2026-05-05 20:52 |
|---|---|
| Airport | Viru Viru International Airport (SLVR) |
Arrival
| Time | 2026-05-05 21:43 |
|---|---|
| Airport | Jorge Wilsterman International Airport (SLCB) |
| Time | Latitude | Longitude | Altitude | Speed | Heading |
|---|---|---|---|---|---|
| 2026-05-05 20:17 | -17.64654 | -63.14049 | 1230 ft | 0 kts | 237° |
| 2026-05-05 20:33 | -17.64650 | -63.14044 | 1230 ft | 2 kts | 234° |
| 2026-05-05 20:33 | -17.64641 | -63.14029 | 1230 ft | 2 kts | 238° |
| 2026-05-05 20:33 | -17.64633 | -63.14015 | 1230 ft | 2 kts | 235° |
| 2026-05-05 20:34 | -17.64622 | -63.14001 | 1230 ft | 2 kts | 227° |
| 2026-05-05 20:34 | -17.64611 | -63.13989 | 1230 ft | 2 kts | 223° |
| 2026-05-05 20:34 | -17.64598 | -63.13977 | 1230 ft | 2 kts | 223° |
| 2026-05-05 20:34 | -17.64588 | -63.13964 | 1230 ft | 2 kts | 239° |
| 2026-05-05 20:35 | -17.64581 | -63.13953 | 1230 ft | 1 kts | 237° |
| 2026-05-05 20:35 | -17.64580 | -63.13951 | 1230 ft | 0 kts | 237° |
| 2026-05-05 20:42 | -17.64584 | -63.13957 | 1230 ft | 6 kts | 236° |
| 2026-05-05 20:43 | -17.64596 | -63.13972 | 1230 ft | 3 kts | 220° |
| 2026-05-05 20:43 | -17.64634 | -63.13963 | 1230 ft | 8 kts | 161° |
| 2026-05-05 20:44 | -17.64684 | -63.13931 | 1230 ft | 11 kts | 140° |
| 2026-05-05 20:44 | -17.64759 | -63.13873 | 1230 ft | 14 kts | 144° |
| 2026-05-05 20:44 | -17.64836 | -63.13817 | 1230 ft | 13 kts | 145° |
| 2026-05-05 20:44 | -17.64877 | -63.13745 | 1230 ft | 13 kts | 71° |
| 2026-05-05 20:45 | -17.64794 | -63.13584 | 1230 ft | 13 kts | 84° |
| 2026-05-05 20:45 | -17.64856 | -63.13518 | 1230 ft | 14 kts | 146° |
| 2026-05-05 20:45 | -17.64941 | -63.13458 | 1230 ft | 16 kts | 146° |
| 2026-05-05 20:46 | -17.65039 | -63.13394 | 1230 ft | 17 kts | 148° |
| 2026-05-05 20:46 | -17.65145 | -63.13326 | 1230 ft | 19 kts | 148° |
| 2026-05-05 20:46 | -17.65259 | -63.13253 | 1230 ft | 20 kts | 148° |
| 2026-05-05 20:46 | -17.65380 | -63.13170 | 1230 ft | 21 kts | 145° |
| 2026-05-05 20:47 | -17.65441 | -63.13129 | 1231 ft | 21 kts | 146° |
| 2026-05-05 20:47 | -17.65470 | -63.13109 | 1231 ft | 21 kts | 148° |
| 2026-05-05 20:47 | -17.65592 | -63.13023 | 1231 ft | 22 kts | 146° |
| 2026-05-05 20:47 | -17.65722 | -63.12934 | 1231 ft | 23 kts | 148° |
| 2026-05-05 20:48 | -17.65858 | -63.12841 | 1231 ft | 24 kts | 135° |
| 2026-05-05 20:48 | -17.65849 | -63.12740 | 1231 ft | 0 kts | 64° |
| 2026-05-05 20:50 | -17.65844 | -63.12729 | 1232 ft | 7 kts | 64° |
| 2026-05-05 20:50 | -17.65786 | -63.12676 | 1232 ft | 15 kts | 2° |
| 2026-05-05 20:51 | -17.65714 | -63.12705 | 1233 ft | 0 kts | 328° |
| 2026-05-05 20:51 | -17.65696 | -63.12717 | 1233 ft | 22 kts | 327° |
| 2026-05-05 20:51 | -17.65423 | -63.12902 | 1233 ft | 93 kts | 327° |
| 2026-05-05 20:51 | -17.65363 | -63.12942 | 1232 ft | 101 kts | 328° |
| 2026-05-05 20:52 | -17.64550 | -63.13479 | 1303 ft | 166 kts | 330° |
| 2026-05-05 20:52 | -17.63586 | -63.14141 | 2188 ft | 174 kts | 326° |
| 2026-05-05 20:52 | -17.62536 | -63.14915 | 2902 ft | 193 kts | 319° |
| 2026-05-05 20:52 | -17.61780 | -63.16133 | 3590 ft | 211 kts | 294° |
| 2026-05-05 20:53 | -17.61606 | -63.17736 | 4175 ft | 232 kts | 270° |
| 2026-05-05 20:53 | -17.62001 | -63.19426 | 4886 ft | 243 kts | 258° |
| 2026-05-05 20:53 | -17.62570 | -63.21118 | 5595 ft | 250 kts | 256° |
| 2026-05-05 20:53 | -17.63177 | -63.22870 | 6163 ft | 265 kts | 256° |
| 2026-05-05 20:54 | -17.63809 | -63.24712 | 6965 ft | 272 kts | 257° |
| 2026-05-05 20:54 | -17.64444 | -63.26600 | 7761 ft | 278 kts | 257° |
| 2026-05-05 20:54 | -17.65084 | -63.28537 | 8603 ft | 282 kts | 257° |
| 2026-05-05 20:54 | -17.65722 | -63.30494 | 9444 ft | 287 kts | 257° |
| 2026-05-05 20:55 | -17.66370 | -63.32504 | 10156 ft | 294 kts | 257° |
| 2026-05-05 20:55 | -17.67034 | -63.34593 | 10424 ft | 317 kts | 256° |
| 2026-05-05 20:55 | -17.67755 | -63.36876 | 10649 ft | 339 kts | 256° |
| 2026-05-05 20:55 | -17.68511 | -63.39260 | 11144 ft | 349 kts | 256° |
| 2026-05-05 20:56 | -17.69281 | -63.41686 | 11879 ft | 351 kts | 255° |
| 2026-05-05 20:56 | -17.70060 | -63.44142 | 12501 ft | 357 kts | 254° |
| 2026-05-05 20:56 | -17.70849 | -63.46641 | 13095 ft | 364 kts | 253° |
| 2026-05-05 20:56 | -17.71644 | -63.49163 | 13777 ft | 367 kts | 252° |
| 2026-05-05 20:57 | -17.72443 | -63.51697 | 14360 ft | 371 kts | 252° |
| 2026-05-05 20:57 | -17.73255 | -63.54278 | 14965 ft | 374 kts | 252° |
| 2026-05-05 20:57 | -17.74074 | -63.56883 | 15555 ft | 377 kts | 252° |
| 2026-05-05 20:57 | -17.74890 | -63.59481 | 16123 ft | 381 kts | 252° |
| 2026-05-05 20:58 | -17.75725 | -63.62141 | 16689 ft | 385 kts | 252° |
| 2026-05-05 20:58 | -17.76565 | -63.64817 | 17247 ft | 388 kts | 252° |
| 2026-05-05 20:58 | -17.77415 | -63.67529 | 17816 ft | 392 kts | 252° |
| 2026-05-05 20:58 | -17.78268 | -63.70274 | 18368 ft | 395 kts | 254° |
| 2026-05-05 20:59 | -17.78643 | -63.73132 | 18832 ft | 398 kts | 273° |
| 2026-05-05 20:59 | -17.78295 | -63.75972 | 19465 ft | 396 kts | 279° |
| 2026-05-05 20:59 | -17.77824 | -63.78814 | 20183 ft | 392 kts | 281° |
| 2026-05-05 20:59 | -17.77335 | -63.81613 | 20885 ft | 389 kts | 281° |
| 2026-05-05 21:00 | -17.76854 | -63.84372 | 21547 ft | 387 kts | 281° |
| 2026-05-05 21:00 | -17.76379 | -63.87149 | 22240 ft | 386 kts | 281° |
| 2026-05-05 21:00 | -17.75911 | -63.89943 | 22977 ft | 383 kts | 281° |
| 2026-05-05 21:00 | -17.75462 | -63.92659 | 23665 ft | 380 kts | 281° |
| 2026-05-05 21:01 | -17.75012 | -63.95405 | 23949 ft | 380 kts | 281° |
| 2026-05-05 21:01 | -17.74567 | -63.98130 | 24004 ft | 379 kts | 281° |
| 2026-05-05 21:01 | -17.74122 | -64.00861 | 24021 ft | 380 kts | 281° |
| 2026-05-05 21:01 | -17.73681 | -64.03572 | 24042 ft | 382 kts | 281° |
| 2026-05-05 21:02 | -17.73233 | -64.06319 | 24044 ft | 382 kts | 281° |
| 2026-05-05 21:02 | -17.72781 | -64.09092 | 24049 ft | 382 kts | 281° |
| 2026-05-05 21:02 | -17.72332 | -64.11840 | 24058 ft | 382 kts | 281° |
| 2026-05-05 21:02 | -17.71882 | -64.14592 | 24067 ft | 382 kts | 281° |
| 2026-05-05 21:03 | -17.71437 | -64.17312 | 24067 ft | 383 kts | 281° |
| 2026-05-05 21:03 | -17.70986 | -64.20073 | 24074 ft | 383 kts | 281° |
| 2026-05-05 21:03 | -17.70533 | -64.22836 | 24061 ft | 383 kts | 281° |
| 2026-05-05 21:03 | -17.70082 | -64.25583 | 24067 ft | 383 kts | 281° |
| 2026-05-05 21:04 | -17.69635 | -64.28313 | 24080 ft | 382 kts | 281° |
| 2026-05-05 21:04 | -17.69181 | -64.31070 | 24081 ft | 382 kts | 281° |
| 2026-05-05 21:04 | -17.68731 | -64.33810 | 24080 ft | 382 kts | 281° |
| 2026-05-05 21:04 | -17.68278 | -64.36558 | 24088 ft | 381 kts | 281° |
| 2026-05-05 21:05 | -17.67826 | -64.39305 | 24097 ft | 381 kts | 281° |
| 2026-05-05 21:05 | -17.67375 | -64.42042 | 24104 ft | 381 kts | 281° |
| 2026-05-05 21:05 | -17.66922 | -64.44785 | 24101 ft | 381 kts | 281° |
| 2026-05-05 21:05 | -17.66478 | -64.47477 | 24104 ft | 381 kts | 281° |
| 2026-05-05 21:06 | -17.66024 | -64.50222 | 24111 ft | 381 kts | 281° |
| 2026-05-05 21:06 | -17.65570 | -64.52965 | 24122 ft | 381 kts | 281° |
| 2026-05-05 21:06 | -17.65214 | -64.55717 | 24113 ft | 382 kts | 274° |
| 2026-05-05 21:06 | -17.65191 | -64.58515 | 24132 ft | 382 kts | 270° |
| 2026-05-05 21:07 | -17.65269 | -64.61268 | 24130 ft | 383 kts | 269° |
| 2026-05-05 21:07 | -17.65372 | -64.64059 | 24130 ft | 384 kts | 269° |
| 2026-05-05 21:07 | -17.65469 | -64.66859 | 24129 ft | 384 kts | 269° |
| 2026-05-05 21:07 | -17.65551 | -64.69652 | 24129 ft | 384 kts | 269° |
| 2026-05-05 21:08 | -17.65620 | -64.72460 | 24135 ft | 384 kts | 270° |
| 2026-05-05 21:08 | -17.65680 | -64.75270 | 24141 ft | 384 kts | 270° |
| 2026-05-05 21:08 | -17.65735 | -64.78073 | 24142 ft | 384 kts | 270° |
| 2026-05-05 21:08 | -17.65786 | -64.80881 | 24141 ft | 384 kts | 270° |
| 2026-05-05 21:09 | -17.65836 | -64.83691 | 24155 ft | 384 kts | 270° |
| 2026-05-05 21:09 | -17.65885 | -64.86465 | 24152 ft | 384 kts | 270° |
| 2026-05-05 21:09 | -17.65933 | -64.89273 | 24148 ft | 384 kts | 270° |
| 2026-05-05 21:09 | -17.65981 | -64.92074 | 24141 ft | 384 kts | 270° |
| 2026-05-05 21:10 | -17.66030 | -64.94881 | 24155 ft | 383 kts | 270° |
| 2026-05-05 21:10 | -17.66076 | -64.97644 | 24149 ft | 383 kts | 270° |
| 2026-05-05 21:10 | -17.66124 | -65.00439 | 24148 ft | 383 kts | 270° |
| 2026-05-05 21:10 | -17.66171 | -65.03231 | 24170 ft | 382 kts | 270° |
| 2026-05-05 21:11 | -17.66217 | -65.06021 | 24163 ft | 383 kts | 270° |
| 2026-05-05 21:11 | -17.66263 | -65.08821 | 24160 ft | 383 kts | 270° |
| 2026-05-05 21:11 | -17.66309 | -65.11617 | 24170 ft | 383 kts | 270° |
| 2026-05-05 21:11 | -17.66354 | -65.14408 | 24170 ft | 383 kts | 270° |
| 2026-05-05 21:12 | -17.66399 | -65.17202 | 24180 ft | 383 kts | 270° |
| 2026-05-05 21:12 | -17.66443 | -65.19969 | 24170 ft | 375 kts | 270° |
| 2026-05-05 21:12 | -17.66487 | -65.22691 | 24175 ft | 370 kts | 270° |
| 2026-05-05 21:12 | -17.66532 | -65.25373 | 24174 ft | 367 kts | 270° |
| 2026-05-05 21:13 | -17.66586 | -65.28015 | 24190 ft | 365 kts | 270° |
| 2026-05-05 21:13 | -17.66643 | -65.30696 | 23947 ft | 369 kts | 270° |
| 2026-05-05 21:13 | -17.66701 | -65.33389 | 23629 ft | 369 kts | 270° |
| 2026-05-05 21:13 | -17.66757 | -65.36090 | 23187 ft | 368 kts | 270° |
| 2026-05-05 21:14 | -17.66811 | -65.38734 | 22781 ft | 365 kts | 270° |
| 2026-05-05 21:14 | -17.66864 | -65.41390 | 22365 ft | 362 kts | 269° |
| 2026-05-05 21:14 | -17.66917 | -65.44020 | 21957 ft | 360 kts | 269° |
| 2026-05-05 21:14 | -17.66970 | -65.46651 | 21542 ft | 358 kts | 269° |
| 2026-05-05 21:15 | -17.67022 | -65.49269 | 21120 ft | 357 kts | 269° |
| 2026-05-05 21:15 | -17.67057 | -65.50968 | 20825 ft | 356 kts | 269° |
| 2026-05-05 21:15 | -17.67110 | -65.53553 | 20409 ft | 350 kts | 269° |
| 2026-05-05 21:15 | -17.67163 | -65.56077 | 20006 ft | 343 kts | 268° |
| 2026-05-05 21:16 | -17.67214 | -65.58563 | 19611 ft | 337 kts | 268° |
| 2026-05-05 21:16 | -17.67264 | -65.61008 | 19212 ft | 332 kts | 268° |
| 2026-05-05 21:16 | -17.67305 | -65.63386 | 18817 ft | 327 kts | 271° |
| 2026-05-05 21:16 | -17.66955 | -65.65718 | 18575 ft | 322 kts | 282° |
| 2026-05-05 21:17 | -17.66434 | -65.68009 | 18171 ft | 326 kts | 283° |
| 2026-05-05 21:17 | -17.65893 | -65.70328 | 17748 ft | 325 kts | 283° |
| 2026-05-05 21:17 | -17.65362 | -65.72618 | 17333 ft | 325 kts | 283° |
| 2026-05-05 21:17 | -17.64837 | -65.74919 | 16951 ft | 324 kts | 283° |
| 2026-05-05 21:18 | -17.64317 | -65.77219 | 16564 ft | 323 kts | 282° |
| 2026-05-05 21:18 | -17.63803 | -65.79514 | 16161 ft | 323 kts | 282° |
| 2026-05-05 21:18 | -17.63298 | -65.81775 | 15760 ft | 323 kts | 282° |
| 2026-05-05 21:18 | -17.62785 | -65.84074 | 15361 ft | 323 kts | 282° |
| 2026-05-05 21:19 | -17.62273 | -65.86372 | 14961 ft | 323 kts | 283° |
| 2026-05-05 21:19 | -17.61819 | -65.88411 | 14594 ft | 324 kts | 283° |
| 2026-05-05 21:19 | -17.61307 | -65.90708 | 14192 ft | 324 kts | 283° |
| 2026-05-05 21:19 | -17.60793 | -65.93007 | 13952 ft | 317 kts | 283° |
| 2026-05-05 21:20 | -17.60310 | -65.95170 | 13889 ft | 293 kts | 283° |
| 2026-05-05 21:20 | -17.59701 | -65.97097 | 13734 ft | 271 kts | 301° |
| 2026-05-05 21:20 | -17.58616 | -65.98609 | 13603 ft | 250 kts | 312° |
| 2026-05-05 21:20 | -17.57487 | -65.99917 | 13436 ft | 234 kts | 313° |
| 2026-05-05 21:21 | -17.56394 | -66.01163 | 13068 ft | 227 kts | 313° |
| 2026-05-05 21:21 | -17.55372 | -66.02331 | 12868 ft | 212 kts | 313° |
| 2026-05-05 21:21 | -17.54378 | -66.03475 | 12414 ft | 211 kts | 314° |
| 2026-05-05 21:21 | -17.53411 | -66.04589 | 12012 ft | 207 kts | 314° |
| 2026-05-05 21:22 | -17.52443 | -66.05711 | 11577 ft | 207 kts | 314° |
| 2026-05-05 21:22 | -17.51486 | -66.06822 | 11329 ft | 197 kts | 313° |
| 2026-05-05 21:22 | -17.50636 | -66.07810 | 11179 ft | 177 kts | 313° |
| 2026-05-05 21:22 | -17.49800 | -66.08780 | 10682 ft | 178 kts | 312° |
| 2026-05-05 21:23 | -17.48989 | -66.09725 | 10237 ft | 174 kts | 314° |
| 2026-05-05 21:23 | -17.48200 | -66.10639 | 9935 ft | 163 kts | 313° |
| 2026-05-05 21:23 | -17.47438 | -66.11521 | 9822 ft | 167 kts | 314° |
| 2026-05-05 21:23 | -17.46630 | -66.12434 | 9752 ft | 173 kts | 314° |
| 2026-05-05 21:24 | -17.45815 | -66.13372 | 9626 ft | 175 kts | 315° |
| 2026-05-05 21:24 | -17.44966 | -66.14328 | 9322 ft | 177 kts | 312° |
| 2026-05-05 21:24 | -17.44187 | -66.15270 | 8893 ft | 167 kts | 313° |
| 2026-05-05 21:24 | -17.43425 | -66.16148 | 8554 ft | 160 kts | 308° |
| 2026-05-05 21:25 | -17.42721 | -66.16986 | 8363 ft | 144 kts | 308° |
| 2026-05-05 21:25 | -17.42089 | -66.17742 | 8387 ft | 147 kts | 308° |
| 2026-05-05 21:25 | -17.41438 | -66.18563 | 8930 ft | 149 kts | 306° |
| 2026-05-05 21:25 | -17.40930 | -66.19369 | 9054 ft | 184 kts | 305° |
| 2026-05-05 21:26 | -17.40162 | -66.20575 | 9255 ft | 207 kts | 305° |
| 2026-05-05 21:26 | -17.39401 | -66.21887 | 9161 ft | 215 kts | 286° |
| 2026-05-05 21:26 | -17.39510 | -66.23452 | 9278 ft | 234 kts | 245° |
| 2026-05-05 21:26 | -17.40675 | -66.24709 | 9500 ft | 253 kts | 206° |
| 2026-05-05 21:27 | -17.42415 | -66.25140 | 9944 ft | 263 kts | 181° |
| 2026-05-05 21:27 | -17.44261 | -66.25055 | 10479 ft | 267 kts | 174° |
| 2026-05-05 21:27 | -17.46097 | -66.24851 | 11097 ft | 269 kts | 174° |
| 2026-05-05 21:27 | -17.47987 | -66.24632 | 11665 ft | 272 kts | 174° |
| 2026-05-05 21:28 | -17.49865 | -66.24427 | 12039 ft | 276 kts | 174° |
| 2026-05-05 21:28 | -17.51777 | -66.24233 | 12659 ft | 276 kts | 174° |
| 2026-05-05 21:28 | -17.53691 | -66.24051 | 13462 ft | 275 kts | 174° |
| 2026-05-05 21:28 | -17.55597 | -66.23870 | 14238 ft | 275 kts | 173° |
| 2026-05-05 21:29 | -17.57532 | -66.23656 | 14630 ft | 289 kts | 173° |
| 2026-05-05 21:29 | -17.59630 | -66.23444 | 14529 ft | 316 kts | 174° |
| 2026-05-05 21:29 | -17.61845 | -66.23255 | 14521 ft | 321 kts | 175° |
| 2026-05-05 21:29 | -17.64082 | -66.23085 | 14468 ft | 319 kts | 175° |
| 2026-05-05 21:30 | -17.66288 | -66.22925 | 14440 ft | 316 kts | 175° |
| 2026-05-05 21:30 | -17.68483 | -66.22966 | 14414 ft | 310 kts | 186° |
| 2026-05-05 21:30 | -17.70538 | -66.23346 | 14399 ft | 296 kts | 191° |
| 2026-05-05 21:30 | -17.72506 | -66.23793 | 14381 ft | 283 kts | 191° |
| 2026-05-05 21:31 | -17.74432 | -66.24217 | 14388 ft | 279 kts | 190° |
| 2026-05-05 21:31 | -17.76334 | -66.24616 | 14319 ft | 286 kts | 190° |
| 2026-05-05 21:31 | -17.78287 | -66.25016 | 14371 ft | 284 kts | 190° |
| 2026-05-05 21:31 | -17.80219 | -66.25422 | 14370 ft | 281 kts | 195° |
| 2026-05-05 21:32 | -17.81922 | -66.26394 | 14384 ft | 279 kts | 223° |
| 2026-05-05 21:32 | -17.83109 | -66.27974 | 14396 ft | 281 kts | 242° |
| 2026-05-05 21:32 | -17.83751 | -66.29903 | 14386 ft | 282 kts | 262° |
| 2026-05-05 21:32 | -17.83731 | -66.31965 | 14394 ft | 289 kts | 285° |
| 2026-05-05 21:33 | -17.82806 | -66.33926 | 14420 ft | 313 kts | 312° |
| 2026-05-05 21:33 | -17.81071 | -66.35317 | 14379 ft | 318 kts | 339° |
| 2026-05-05 21:33 | -17.78936 | -66.35742 | 14419 ft | 316 kts | 4° |
| 2026-05-05 21:33 | -17.76825 | -66.35172 | 14409 ft | 314 kts | 29° |
| 2026-05-05 21:34 | -17.75153 | -66.33718 | 14390 ft | 313 kts | 52° |
| 2026-05-05 21:34 | -17.74038 | -66.31753 | 14412 ft | 313 kts | 65° |
| 2026-05-05 21:34 | -17.73172 | -66.29659 | 14400 ft | 314 kts | 68° |
| 2026-05-05 21:34 | -17.72360 | -66.27533 | 14398 ft | 315 kts | 68° |
| 2026-05-05 21:35 | -17.71546 | -66.25412 | 14391 ft | 316 kts | 68° |
| 2026-05-05 21:35 | -17.70700 | -66.23256 | 14157 ft | 321 kts | 68° |
| 2026-05-05 21:35 | -17.69832 | -66.21091 | 13950 ft | 319 kts | 67° |
| 2026-05-05 21:35 | -17.68970 | -66.18970 | 13702 ft | 313 kts | 67° |
| 2026-05-05 21:36 | -17.68124 | -66.16907 | 13468 ft | 309 kts | 66° |
| 2026-05-05 21:36 | -17.67212 | -66.14892 | 13274 ft | 304 kts | 54° |
| 2026-05-05 21:36 | -17.65662 | -66.13483 | 13271 ft | 286 kts | 28° |
| 2026-05-05 21:36 | -17.63862 | -66.12827 | 13246 ft | 261 kts | 10° |
| 2026-05-05 21:37 | -17.62140 | -66.12618 | 13225 ft | 237 kts | 5° |
| 2026-05-05 21:37 | -17.60554 | -66.12503 | 13087 ft | 221 kts | 5° |
| 2026-05-05 21:37 | -17.59092 | -66.12402 | 12923 ft | 206 kts | 5° |
| 2026-05-05 21:37 | -17.57754 | -66.11983 | 12433 ft | 203 kts | 41° |
| 2026-05-05 21:38 | -17.57080 | -66.10738 | 12152 ft | 191 kts | 81° |
| 2026-05-05 21:38 | -17.57087 | -66.09404 | 12135 ft | 187 kts | 101° |
| 2026-05-05 21:38 | -17.57422 | -66.07963 | 12052 ft | 218 kts | 102° |
| 2026-05-05 21:38 | -17.57447 | -66.06404 | 11754 ft | 219 kts | 66° |
| 2026-05-05 21:39 | -17.56533 | -66.05222 | 11615 ft | 204 kts | 31° |
| 2026-05-05 21:39 | -17.55232 | -66.04759 | 11526 ft | 194 kts | 4° |
| 2026-05-05 21:39 | -17.53905 | -66.04975 | 11356 ft | 199 kts | 339° |
| 2026-05-05 21:39 | -17.52767 | -66.05798 | 11193 ft | 202 kts | 316° |
| 2026-05-05 21:40 | -17.51771 | -66.06883 | 10964 ft | 208 kts | 314° |
| 2026-05-05 21:40 | -17.50758 | -66.07971 | 10687 ft | 206 kts | 314° |
| 2026-05-05 21:40 | -17.49776 | -66.09023 | 10350 ft | 201 kts | 314° |
| 2026-05-05 21:40 | -17.48824 | -66.10044 | 10076 ft | 194 kts | 317° |
| 2026-05-05 21:41 | -17.47898 | -66.11022 | 9821 ft | 182 kts | 317° |
| 2026-05-05 21:41 | -17.47025 | -66.11961 | 9590 ft | 180 kts | 313° |
| 2026-05-05 21:41 | -17.46193 | -66.12916 | 9411 ft | 176 kts | 312° |
| 2026-05-05 21:41 | -17.45391 | -66.13880 | 9174 ft | 176 kts | 312° |
| 2026-05-05 21:42 | -17.44601 | -66.14841 | 9087 ft | 175 kts | 314° |
| 2026-05-05 21:42 | -17.43749 | -66.15802 | 8708 ft | 181 kts | 311° |
| 2026-05-05 21:42 | -17.42921 | -66.16766 | 8386 ft | 171 kts | 308° |
| 2026-05-05 21:42 | -17.42226 | -66.17581 | 8362 ft | 116 kts | 309° |
| 2026-05-05 21:43 | -17.41920 | -66.17930 | 8360 ft | 42 kts | 313° |
| 2026-05-05 21:43 | -17.41857 | -66.17999 | 8360 ft | 2 kts | 330° |
| 2026-05-05 21:43 | -17.41810 | -66.17985 | 8360 ft | 10 kts | 17° |
| 2026-05-05 21:43 | -17.41737 | -66.17961 | 8360 ft | 12 kts | 17° |
| 2026-05-05 21:44 | -17.41704 | -66.17950 | 8360 ft | 12 kts | 19° |
| 2026-05-05 21:44 | -17.41623 | -66.17919 | 8360 ft | 14 kts | 12° |
| 2026-05-05 21:44 | -17.41566 | -66.17918 | 8360 ft | 6 kts | 21° |
| 2026-05-05 21:45 | -17.41534 | -66.17890 | 8361 ft | 5 kts | 42° |
| 2026-05-05 21:45 | -17.41532 | -66.17889 | 8361 ft | 0 kts | 42° |